createdAt,value
2023-02-15T00:03:24.447Z,102522.75
2023-02-15T00:08:28.198Z,102518.19
2023-02-15T00:13:32.822Z,102542.13
2023-02-15T00:18:36.938Z,102540.91
2023-02-15T00:23:40.872Z,102519.56
2023-02-15T00:28:44.792Z,102527.06
2023-02-15T00:33:48.828Z,102521.88
2023-02-15T00:38:52.737Z,102533.44
2023-02-15T00:43:56.831Z,102544.00
2023-02-15T00:49:00.877Z,102535.75
2023-02-15T00:54:04.862Z,102539.25
2023-02-15T00:59:10.477Z,102526.03
2023-02-15T01:04:14.382Z,102530.78
2023-02-15T01:09:18.163Z,102522.53
2023-02-15T01:14:22.154Z,102532.22
2023-02-15T01:19:26.998Z,102524.94
2023-02-15T01:24:30.950Z,102409.31
2023-02-15T01:29:34.993Z,102513.84
2023-02-15T01:34:38.476Z,102528.47
2023-02-15T01:39:42.313Z,102522.16
2023-02-15T01:45:01.586Z,102422.00
2023-02-15T01:50:20.550Z,102528.19
2023-02-15T01:55:28.291Z,102535.03
2023-02-15T02:00:32.401Z,102528.81
2023-02-15T02:05:36.288Z,102523.53
2023-02-15T02:10:41.003Z,102538.53
2023-02-15T02:16:09.273Z,102534.63
2023-02-15T02:21:52.146Z,102525.44
2023-02-15T02:27:20.309Z,102518.78
2023-02-15T02:33:02.847Z,102508.41
2023-02-15T02:38:06.618Z,102500.25
2023-02-15T02:43:32.960Z,102486.97
2023-02-15T02:48:36.937Z,102491.38
2023-02-15T02:53:40.723Z,102486.03
2023-02-15T02:58:53.640Z,102505.38
2023-02-15T03:04:13.930Z,102511.81
2023-02-15T03:09:47.449Z,102494.00
2023-02-15T03:15:17.693Z,102493.78
2023-02-15T03:20:36.063Z,102481.69
2023-02-15T03:25:44.243Z,102473.75
2023-02-15T03:30:55.660Z,102484.97
2023-02-15T03:36:02.489Z,102466.22
2023-02-15T03:41:11.617Z,102478.63
2023-02-15T03:46:45.987Z,102460.41
2023-02-15T03:51:54.287Z,102465.47
2023-02-15T03:57:19.850Z,102456.53
2023-02-15T04:02:32.128Z,102470.38
2023-02-15T04:07:36.006Z,102381.28
2023-02-15T04:12:39.727Z,102470.41
2023-02-15T04:17:43.637Z,102392.31
2023-02-15T04:23:06.116Z,102464.94
2023-02-15T04:28:10.051Z,102463.03
2023-02-15T04:33:14.259Z,102473.66
2023-02-15T04:38:18.049Z,102467.56
2023-02-15T04:43:22.104Z,102466.72
2023-02-15T04:48:26.125Z,102444.78
2023-02-15T04:53:29.914Z,102442.94
2023-02-15T04:58:33.965Z,102445.84
2023-02-15T05:03:37.905Z,102429.56
2023-02-15T05:08:41.878Z,102438.00
2023-02-15T05:13:45.993Z,102427.69
2023-02-15T05:18:49.767Z,102432.88
2023-02-15T05:23:53.900Z,102382.22
2023-02-15T05:28:57.771Z,102417.22
2023-02-15T05:34:02.647Z,102395.66
2023-02-15T05:39:07.766Z,102387.50
2023-02-15T05:44:11.586Z,102373.53
2023-02-15T05:49:15.545Z,102378.81
2023-02-15T05:54:19.289Z,102382.38
2023-02-15T05:59:23.151Z,102374.06
2023-02-15T06:04:27.190Z,102372.44
2023-02-15T06:09:31.069Z,102366.63
2023-02-15T06:14:35.150Z,102369.84
2023-02-15T06:19:39.164Z,102359.50
2023-02-15T06:24:44.419Z,102347.75
2023-02-15T06:29:48.169Z,102356.50
2023-02-15T06:34:52.302Z,102267.44
2023-02-15T06:39:56.342Z,102342.31
2023-02-15T06:45:01.877Z,102339.81
2023-02-15T06:50:09.560Z,102325.38
2023-02-15T06:55:13.427Z,102247.84
2023-02-15T07:00:17.689Z,102331.91
2023-02-15T07:05:21.870Z,102325.84
2023-02-15T07:10:27.152Z,102302.63
2023-02-15T07:15:31.248Z,102330.13
2023-02-15T07:20:37.735Z,102330.25
2023-02-15T07:25:41.620Z,102330.28
2023-02-15T07:30:45.768Z,102332.16
2023-02-15T07:35:56.030Z,102329.81
2023-02-15T07:41:01.253Z,102323.13
2023-02-15T07:46:10.921Z,102319.97
2023-02-15T07:51:16.252Z,102305.75
2023-02-15T07:56:20.134Z,102302.31
2023-02-15T08:01:32.003Z,102305.72
2023-02-15T08:06:37.980Z,102303.25
2023-02-15T08:11:42.345Z,102249.69
2023-02-15T08:16:50.073Z,102290.41
2023-02-15T08:22:02.664Z,102291.75
2023-02-15T08:27:11.469Z,102299.06
2023-02-15T08:32:15.757Z,102292.22
2023-02-15T08:37:20.352Z,102223.59
2023-02-15T08:42:24.455Z,102276.59
2023-02-15T08:47:28.312Z,102291.94
2023-02-15T08:52:32.381Z,102283.72
2023-02-15T08:57:37.733Z,102260.16
2023-02-15T09:02:41.676Z,102267.25
2023-02-15T09:07:46.461Z,102261.41
2023-02-15T09:12:51.728Z,102253.03
2023-02-15T09:17:55.706Z,102249.75
2023-02-15T09:23:00.005Z,102265.97
2023-02-15T09:28:05.383Z,102265.03
2023-02-15T09:33:09.195Z,102205.59
2023-02-15T09:38:13.853Z,102251.56
2023-02-15T09:43:37.081Z,102265.97
2023-02-15T09:48:43.147Z,102272.81
2023-02-15T09:54:10.471Z,102257.91
2023-02-15T09:59:23.033Z,102263.03
2023-02-15T10:04:41.916Z,102254.47
2023-02-15T10:10:12.277Z,102253.59
2023-02-15T10:15:54.873Z,102242.25
2023-02-15T10:21:25.885Z,102252.53
2023-02-15T10:26:45.976Z,102259.13
2023-02-15T10:31:52.491Z,102245.25
2023-02-15T10:37:08.048Z,102242.75
2023-02-15T10:42:32.651Z,102245.88
2023-02-15T10:47:55.655Z,102243.19
2023-02-15T10:53:27.227Z,102229.31
2023-02-15T10:58:47.368Z,102239.72
2023-02-15T11:04:09.908Z,102237.53
2023-02-15T11:09:22.102Z,102237.88
2023-02-15T11:14:40.994Z,102239.13
2023-02-15T11:20:02.364Z,102243.53
2023-02-15T11:25:22.452Z,102239.31
2023-02-15T11:30:47.480Z,102252.34
2023-02-15T11:36:05.104Z,102251.38
2023-02-15T11:41:25.836Z,102253.00
2023-02-15T11:46:30.383Z,102242.09
2023-02-15T11:51:34.393Z,102238.53
2023-02-15T11:56:38.468Z,102247.69
2023-02-15T12:01:47.025Z,102253.44
2023-02-15T12:07:02.966Z,102242.28
2023-02-15T12:12:23.280Z,102255.63
2023-02-15T12:17:39.831Z,102255.81
2023-02-15T12:23:04.527Z,102259.16
2023-02-15T12:28:42.616Z,102168.28
2023-02-15T12:33:49.798Z,102260.38
2023-02-15T12:39:27.823Z,102244.63
2023-02-15T12:44:33.293Z,102247.41
2023-02-15T12:49:40.307Z,102240.59
2023-02-15T12:54:45.201Z,102235.63
2023-02-15T12:59:58.367Z,102235.44
2023-02-15T13:05:29.418Z,102248.41
2023-02-15T13:10:38.625Z,102242.13
2023-02-15T13:15:47.117Z,102249.84
2023-02-15T13:20:52.388Z,102238.03
2023-02-15T13:26:00.139Z,102244.09
2023-02-15T13:31:04.357Z,102234.22
2023-02-15T13:36:12.233Z,102245.72
2023-02-15T13:41:22.361Z,102233.59
2023-02-15T13:46:32.535Z,102232.66
2023-02-15T13:51:58.237Z,102238.72
2023-02-15T13:57:23.115Z,102231.94
2023-02-15T14:02:27.691Z,102227.22
2023-02-15T14:08:02.350Z,102250.06
2023-02-15T14:13:50.717Z,102206.94
2023-02-15T14:19:07.284Z,102213.31
2023-02-15T14:24:27.195Z,102221.66
2023-02-15T14:29:37.365Z,102212.16
2023-02-15T14:34:47.793Z,102215.59
2023-02-15T14:40:19.093Z,102213.34
2023-02-15T14:45:58.269Z,102102.25
2023-02-15T14:51:03.101Z,102196.34
2023-02-15T14:56:20.335Z,102190.88
2023-02-15T15:01:32.169Z,102196.13
2023-02-15T15:06:39.569Z,102207.44
2023-02-15T15:11:52.542Z,102205.94
2023-02-15T15:16:56.733Z,102208.63
2023-02-15T15:22:06.731Z,102121.50
2023-02-15T15:27:38.226Z,102187.88
2023-02-15T15:32:49.490Z,102181.31
2023-02-15T15:38:27.165Z,102091.91
2023-02-15T15:43:39.738Z,102176.72
2023-02-15T15:48:43.832Z,102163.97
2023-02-15T15:53:54.688Z,102170.81
2023-02-15T15:59:04.826Z,102185.91
2023-02-15T16:04:15.286Z,102181.53
2023-02-15T16:09:22.160Z,102174.94
2023-02-15T16:14:41.413Z,102173.97
2023-02-15T16:19:47.115Z,102176.22
2023-02-15T16:24:50.660Z,102178.34
2023-02-15T16:29:54.868Z,102177.91
2023-02-15T16:35:04.822Z,102173.06
2023-02-15T16:40:40.597Z,102178.19
2023-02-15T16:45:45.319Z,102166.72
2023-02-15T16:50:56.988Z,102173.03
2023-02-15T16:56:04.174Z,102176.22
2023-02-15T17:01:11.670Z,102175.97
2023-02-15T17:06:28.166Z,102169.94
2023-02-15T17:11:38.188Z,102164.84
2023-02-15T17:16:53.061Z,102170.22
2023-02-15T17:22:06.631Z,102178.78
2023-02-15T17:27:26.674Z,102184.16
2023-02-15T17:32:33.140Z,102174.63
2023-02-15T17:37:40.091Z,102172.13
2023-02-15T17:42:43.889Z,102180.97
2023-02-15T17:47:50.002Z,102180.84
2023-02-15T17:52:57.412Z,102155.44
2023-02-15T17:58:01.469Z,102100.47
2023-02-15T18:03:23.599Z,102179.38
2023-02-15T18:08:48.200Z,102172.16
2023-02-15T18:13:52.124Z,102190.38
2023-02-15T18:18:57.995Z,102075.06
2023-02-15T18:24:01.778Z,102141.97
2023-02-15T18:29:05.685Z,102167.97
2023-02-15T18:34:32.065Z,102173.78
2023-02-15T18:39:56.244Z,102190.91
2023-02-15T18:45:04.897Z,102185.44
2023-02-15T18:50:09.781Z,102089.47
2023-02-15T18:55:25.928Z,102165.63
2023-02-15T19:00:35.475Z,102196.72
2023-02-15T19:05:39.478Z,102151.75
2023-02-15T19:10:44.600Z,102166.63
2023-02-15T19:15:48.253Z,102177.81
2023-02-15T19:20:52.246Z,102188.06
2023-02-15T19:25:56.175Z,102076.00
2023-02-15T19:31:00.008Z,102199.41
2023-02-15T19:36:05.228Z,102193.16
2023-02-15T19:41:17.477Z,102183.38
2023-02-15T19:46:22.414Z,102171.06
2023-02-15T19:51:27.632Z,102189.72
2023-02-15T19:56:31.518Z,102198.72
2023-02-15T20:01:35.561Z,102206.81
2023-02-15T20:06:39.635Z,102199.50
2023-02-15T20:11:43.478Z,102208.84
2023-02-15T20:16:47.466Z,102229.53
2023-02-15T20:21:55.159Z,102186.56
2023-02-15T20:27:00.878Z,102209.50
2023-02-15T20:32:04.841Z,102207.75
2023-02-15T20:37:24.276Z,102217.13
2023-02-15T20:42:28.235Z,102213.78
2023-02-15T20:47:32.059Z,102226.53
2023-02-15T20:52:36.805Z,102210.22
2023-02-15T20:57:40.582Z,102196.72
2023-02-15T21:02:44.876Z,102189.69
2023-02-15T21:07:49.503Z,102196.00
2023-02-15T21:12:54.023Z,102198.66
2023-02-15T21:18:01.813Z,102202.50
2023-02-15T21:23:07.617Z,102184.84
2023-02-15T21:28:19.622Z,102194.75
2023-02-15T21:33:23.450Z,102157.50
2023-02-15T21:38:31.741Z,102189.00
2023-02-15T21:43:53.929Z,102184.75
2023-02-15T21:48:57.897Z,102183.88
2023-02-15T21:54:01.695Z,102180.00
2023-02-15T21:59:14.345Z,102183.50
2023-02-15T22:04:28.554Z,102202.19
2023-02-15T22:09:32.345Z,102199.56
2023-02-15T22:14:40.081Z,102197.69
2023-02-15T22:19:45.716Z,102203.94
2023-02-15T22:24:52.582Z,102119.34
2023-02-15T22:29:56.818Z,102183.94
2023-02-15T22:35:00.669Z,102203.06
2023-02-15T22:40:04.962Z,102198.84
2023-02-15T22:45:20.232Z,102125.13
2023-02-15T22:50:27.105Z,102199.75
2023-02-15T22:55:37.394Z,102208.91
2023-02-15T23:00:41.451Z,102203.97
2023-02-15T23:05:46.741Z,102212.13
2023-02-15T23:10:57.706Z,102211.75
2023-02-15T23:16:04.073Z,102224.53
2023-02-15T23:21:14.180Z,102235.56
2023-02-15T23:26:25.782Z,102231.78
2023-02-15T23:31:32.831Z,102239.63
2023-02-15T23:36:39.425Z,102232.34
2023-02-15T23:41:43.182Z,102244.25
2023-02-15T23:46:49.746Z,102260.22
2023-02-15T23:51:56.736Z,102236.59
2023-02-15T23:57:03.095Z,102243.72
